Time;durP1;ratioP1;P1;durP2;ratioP2;P2;SDS_P1;SDS_P2;PMS_P1;PMS_P2;Temp;Humidity;BMP_temperature;BMP_pressure;BME280_temperature;BME280_humidity;BME280_pressure;Samples;Min_cycle;Max_cycle;Signal;HPM_P1;HPM_P2
2021/06/21 00:00:26;;;;;;;1.40;1.30;;;17.20;99.90;;;;;;4967056;28;20205;-71
2021/06/21 00:02:53;;;;;;;0.10;0.10;;;17.30;99.90;;;;;;4968291;28;20292;-73
2021/06/21 00:05:21;;;;;;;0.00;0.00;;;17.20;99.90;;;;;;4967858;28;20304;-72
2021/06/21 00:07:48;;;;;;;0.00;0.00;;;17.30;99.90;;;;;;4968580;28;20301;-71
2021/06/21 00:10:18;;;;;;;0.10;0.10;;;17.30;99.90;;;;;;4966711;28;20202;-72
2021/06/21 00:12:47;;;;;;;2.20;0.90;;;17.30;99.90;;;;;;4967631;28;20608;-72
2021/06/21 00:15:16;;;;;;;2.93;2.10;;;17.20;99.90;;;;;;4964860;28;20209;-72
2021/06/21 00:17:43;;;;;;;1.33;1.23;;;17.20;99.90;;;;;;4968488;28;20205;-72
2021/06/21 00:20:11;;;;;;;0.60;0.37;;;17.20;99.90;;;;;;4967622;28;20620;-71
2021/06/21 00:22:38;;;;;;;0.00;0.00;;;17.20;99.90;;;;;;4966572;28;20217;-73
2021/06/21 00:25:06;;;;;;;0.40;0.40;;;17.20;99.90;;;;;;4965727;28;20205;-72
2021/06/21 00:27:35;;;;;;;0.20;0.10;;;17.20;99.90;;;;;;4975431;28;20229;-72
2021/06/21 00:30:02;;;;;;;1.07;0.87;;;17.10;99.90;;;;;;4976598;28;20229;-70
2021/06/21 00:32:29;;;;;;;0.97;0.97;;;17.10;99.90;;;;;;4979993;28;20220;-72
2021/06/21 00:34:56;;;;;;;0.50;0.40;;;17.10;99.90;;;;;;4968570;28;20293;-72
2021/06/21 00:37:24;;;;;;;0.27;0.27;;;17.10;99.90;;;;;;4963754;28;20229;-71
2021/06/21 00:39:51;;;;;;;0.17;0.17;;;17.00;99.90;;;;;;4963736;28;20537;-72
2021/06/21 00:42:19;;;;;;;0.97;0.53;;;17.00;99.90;;;;;;4962761;28;20205;-71
2021/06/21 00:44:48;;;;;;;0.17;0.17;;;17.00;99.90;;;;;;4966739;28;20206;-71
2021/06/21 00:47:15;;;;;;;0.20;0.20;;;17.00;99.90;;;;;;4967188;28;20229;-72
2021/06/21 00:49:42;;;;;;;0.93;0.87;;;17.00;99.90;;;;;;4965358;28;20217;-73
2021/06/21 00:52:15;;;;;;;1.10;1.10;;;16.90;99.90;;;;;;4966853;28;20209;-71
2021/06/21 00:54:43;;;;;;;0.20;0.20;;;16.90;99.90;;;;;;4964753;28;21264;-74
2021/06/21 00:57:10;;;;;;;1.37;0.90;;;16.90;99.90;;;;;;4965841;28;20213;-71
2021/06/21 00:59:38;;;;;;;2.03;1.67;;;16.90;99.90;;;;;;4966440;28;20213;-72
2021/06/21 01:02:06;;;;;;;0.37;0.37;;;16.90;99.90;;;;;;4970847;28;20206;-72
2021/06/21 01:04:33;;;;;;;1.33;1.23;;;16.90;99.90;;;;;;4972013;28;20211;-72
2021/06/21 01:07:01;;;;;;;0.05;0.05;;;16.90;99.90;;;;;;4968250;28;20265;-71
2021/06/21 01:09:29;;;;;;;3.27;1.47;;;16.90;99.90;;;;;;4967756;28;20202;-72
2021/06/21 01:12:01;;;;;;;0.73;0.43;;;16.90;99.90;;;;;;4967006;28;20255;-71
2021/06/21 01:14:32;;;;;;;1.03;0.93;;;16.90;99.90;;;;;;4965982;28;20205;-71
2021/06/21 01:17:10;;;;;;;0.73;0.73;;;16.90;99.90;;;;;;4964883;28;20202;-72
2021/06/21 01:19:59;;;;;;;0.20;0.20;;;16.80;99.90;;;;;;4968230;28;21327;-69
2021/06/21 01:23:05;;;;;;;0.97;0.87;;;16.80;99.90;;;;;;4968123;28;20233;-69
2021/06/21 01:25:35;;;;;;;0.30;0.23;;;16.80;99.90;;;;;;4934491;28;20201;-71
2021/06/21 01:28:08;;;;;;;0.17;0.13;;;16.80;99.90;;;;;;4965513;28;20237;-72
2021/06/21 01:30:47;;;;;;;1.47;0.77;;;16.70;99.90;;;;;;4966093;28;20221;-71
2021/06/21 01:33:16;;;;;;;0.00;0.00;;;16.70;99.90;;;;;;4964334;28;20671;-72
2021/06/21 01:35:52;;;;;;;1.27;1.17;;;16.70;99.90;;;;;;4964550;28;20228;-71
2021/06/21 01:38:23;;;;;;;0.93;0.47;;;16.70;99.90;;;;;;4964676;28;20206;-71
2021/06/21 01:40:53;;;;;;;1.20;0.33;;;16.60;99.90;;;;;;4963075;28;20713;-70
2021/06/21 01:43:26;;;;;;;0.53;0.53;;;16.60;99.90;;;;;;4968803;28;20217;-70
2021/06/21 01:45:54;;;;;;;0.10;0.10;;;16.60;99.90;;;;;;4963890;28;20603;-70
2021/06/21 01:48:26;;;;;;;0.20;0.20;;;16.60;99.90;;;;;;4965710;28;20785;-70
2021/06/21 01:50:56;;;;;;;0.90;0.83;;;16.60;99.90;;;;;;4969905;28;20611;-71
2021/06/21 01:53:25;;;;;;;0.30;0.20;;;16.60;99.90;;;;;;4971155;28;20202;-71
2021/06/21 01:55:59;;;;;;;0.63;0.30;;;16.50;99.90;;;;;;4972162;28;20201;-72
2021/06/21 01:58:30;;;;;;;0.00;0.00;;;16.50;99.90;;;;;;4970886;28;21814;-71
2021/06/21 02:00:58;;;;;;;0.20;0.20;;;16.50;99.90;;;;;;4970884;28;20378;-71
2021/06/21 02:03:27;;;;;;;0.97;0.77;;;16.50;99.90;;;;;;4969315;28;20706;-70
2021/06/21 02:05:55;;;;;;;1.70;1.60;;;16.50;99.90;;;;;;4968952;28;20252;-71
2021/06/21 02:08:23;;;;;;;0.47;0.47;;;16.50;99.90;;;;;;4969031;28;20245;-71
2021/06/21 02:10:52;;;;;;;0.00;0.00;;;16.40;99.90;;;;;;4969152;28;20198;-72
2021/06/21 02:13:22;;;;;;;1.80;1.67;;;16.40;99.90;;;;;;4969733;28;20725;-72
2021/06/21 02:15:51;;;;;;;0.40;0.40;;;16.30;99.90;;;;;;4966938;28;20571;-72
2021/06/21 02:18:19;;;;;;;1.23;1.20;;;16.30;99.90;;;;;;4966754;28;20678;-73
2021/06/21 02:20:49;;;;;;;1.53;1.17;;;16.30;99.90;;;;;;4967876;28;20209;-73
2021/06/21 02:23:17;;;;;;;0.10;0.10;;;16.20;99.90;;;;;;4971400;28;20614;-72
2021/06/21 02:25:46;;;;;;;1.07;0.83;;;16.20;99.90;;;;;;4971996;28;20363;-74
2021/06/21 02:28:14;;;;;;;0.50;0.40;;;16.20;99.90;;;;;;4967952;28;20230;-73
2021/06/21 02:30:42;;;;;;;2.37;0.57;;;16.20;99.90;;;;;;4969916;28;20209;-73
2021/06/21 02:33:09;;;;;;;2.10;2.00;;;16.10;99.90;;;;;;4970636;28;20210;-72
2021/06/21 02:35:36;;;;;;;1.50;0.87;;;16.10;99.90;;;;;;4965979;28;20210;-72
2021/06/21 02:38:05;;;;;;;2.33;1.70;;;16.10;99.90;;;;;;4969673;28;20296;-72
2021/06/21 02:40:32;;;;;;;0.53;0.53;;;16.00;99.90;;;;;;4965627;28;20202;-71
2021/06/21 02:42:59;;;;;;;1.37;1.27;;;16.00;99.90;;;;;;4964926;28;20206;-72
2021/06/21 02:45:26;;;;;;;1.27;1.00;;;16.00;99.90;;;;;;4968515;28;20210;-71
2021/06/21 02:47:53;;;;;;;1.63;1.53;;;16.00;99.90;;;;;;4968362;28;20262;-72
2021/06/21 02:50:21;;;;;;;1.33;1.23;;;15.90;99.90;;;;;;4967813;28;20730;-70
2021/06/21 02:53:00;;;;;;;1.33;1.23;;;15.90;99.90;;;;;;4967269;28;20857;-72
2021/06/21 02:55:33;;;;;;;3.20;1.83;;;15.90;99.90;;;;;;4968300;28;20228;-73
2021/06/21 02:58:09;;;;;;;0.40;0.40;;;15.90;99.90;;;;;;4965841;28;20694;-72
2021/06/21 03:00:38;;;;;;;2.80;1.53;;;15.90;99.90;;;;;;4966260;28;20198;-72
2021/06/21 03:03:08;;;;;;;0.00;0.00;;;15.90;99.90;;;;;;4967967;28;20245;-72
2021/06/21 03:05:37;;;;;;;0.30;0.30;;;15.90;99.90;;;;;;4969204;28;20337;-72
2021/06/21 03:08:05;;;;;;;1.20;1.20;;;15.90;99.90;;;;;;4967480;28;20226;-73
2021/06/21 03:10:37;;;;;;;0.87;0.87;;;15.80;99.90;;;;;;4965505;28;20242;-72
2021/06/21 03:13:05;;;;;;;1.03;0.93;;;15.80;99.90;;;;;;4968274;28;20684;-71
2021/06/21 03:15:33;;;;;;;2.77;2.13;;;15.70;99.90;;;;;;4966155;28;20577;-72
2021/06/21 03:18:01;;;;;;;1.90;1.43;;;15.70;99.90;;;;;;4969021;28;20758;-69
2021/06/21 03:20:29;;;;;;;2.17;1.70;;;15.60;99.90;;;;;;4965962;28;20343;-71
2021/06/21 03:22:58;;;;;;;2.33;2.10;;;15.60;99.90;;;;;;4968726;28;20284;-71
2021/06/21 03:25:27;;;;;;;0.53;0.53;;;15.50;99.90;;;;;;4970453;28;20206;-70
2021/06/21 03:27:56;;;;;;;2.97;2.63;;;15.50;99.90;;;;;;4966454;28;20208;-71
2021/06/21 03:30:24;;;;;;;2.70;1.87;;;15.40;99.90;;;;;;4964902;28;20205;-69
2021/06/21 03:32:52;;;;;;;0.77;0.70;;;15.40;99.90;;;;;;4968759;28;20273;-70
2021/06/21 03:35:22;;;;;;;0.33;0.33;;;15.40;99.90;;;;;;4969925;28;20213;-73
2021/06/21 03:37:50;;;;;;;0.00;0.00;;;15.40;99.90;;;;;;4966108;28;20267;-69
2021/06/21 03:40:17;;;;;;;0.00;0.00;;;15.40;99.90;;;;;;4969694;28;20210;-71
2021/06/21 03:42:44;;;;;;;1.10;1.00;;;15.40;99.90;;;;;;4967294;28;20226;-68
2021/06/21 03:45:14;;;;;;;0.00;0.00;;;15.40;99.90;;;;;;4972960;28;20243;-72
2021/06/21 03:47:42;;;;;;;0.80;0.80;;;15.40;99.90;;;;;;4973698;28;20214;-71
2021/06/21 03:50:10;;;;;;;0.00;0.00;;;15.30;99.90;;;;;;4970810;28;21662;-72
2021/06/21 03:52:37;;;;;;;0.53;0.53;;;15.30;99.90;;;;;;4972922;28;20671;-72
2021/06/21 03:55:09;;;;;;;1.30;1.30;;;15.30;99.90;;;;;;4971743;28;20237;-72
2021/06/21 03:57:38;;;;;;;1.40;1.30;;;15.30;99.90;;;;;;4971329;28;20225;-71
2021/06/21 04:00:09;;;;;;;0.53;0.40;;;15.30;99.90;;;;;;4969956;28;20202;-72
2021/06/21 04:02:37;;;;;;;1.03;1.03;;;15.20;99.90;;;;;;4973016;28;20683;-72
2021/06/21 04:05:06;;;;;;;1.30;1.23;;;15.20;99.90;;;;;;4971038;28;20727;-72
2021/06/21 04:07:33;;;;;;;1.70;0.73;;;15.20;99.90;;;;;;4969204;28;20206;-72
2021/06/21 04:10:00;;;;;;;2.03;1.60;;;15.10;99.90;;;;;;4972733;28;20869;-68
2021/06/21 04:12:28;;;;;;;0.83;0.60;;;15.10;99.90;;;;;;4969222;28;20213;-72
2021/06/21 04:14:55;;;;;;;1.37;0.20;;;15.10;99.90;;;;;;4972089;28;20210;-70
2021/06/21 04:17:22;;;;;;;1.57;1.47;;;15.10;99.90;;;;;;4974055;28;20218;-70
2021/06/21 04:19:51;;;;;;;0.40;0.27;;;15.10;99.90;;;;;;4969330;28;20535;-70
2021/06/21 04:22:18;;;;;;;1.03;1.03;;;15.00;99.90;;;;;;4971047;28;20245;-70
2021/06/21 04:24:45;;;;;;;1.47;1.37;;;15.00;99.90;;;;;;4968713;28;20229;-70
2021/06/21 04:27:13;;;;;;;1.27;1.17;;;15.00;99.90;;;;;;4971765;28;20256;-72
2021/06/21 04:29:40;;;;;;;0.87;0.63;;;14.90;99.90;;;;;;4973231;28;20229;-72
2021/06/21 04:32:08;;;;;;;0.47;0.47;;;15.00;99.90;;;;;;4973026;28;20210;-69
2021/06/21 04:34:35;;;;;;;0.87;0.87;;;15.00;99.90;;;;;;4970641;28;20718;-70
2021/06/21 04:37:05;;;;;;;2.13;1.57;;;15.00;99.90;;;;;;4970495;28;20236;-69
2021/06/21 04:39:33;;;;;;;0.90;0.37;;;15.00;99.90;;;;;;4969925;28;20541;-71
2021/06/21 04:42:00;;;;;;;2.00;1.47;;;15.00;99.90;;;;;;4967285;28;20205;-71
2021/06/21 04:44:27;;;;;;;0.33;0.30;;;14.90;99.90;;;;;;4971437;28;20311;-70
2021/06/21 04:46:54;;;;;;;0.00;0.00;;;15.00;99.90;;;;;;4971091;28;20198;-71
2021/06/21 04:49:21;;;;;;;0.47;0.47;;;15.00;99.90;;;;;;4972963;28;20233;-69
2021/06/21 04:51:49;;;;;;;0.00;0.00;;;15.00;99.90;;;;;;4968426;28;20198;-70
2021/06/21 04:54:19;;;;;;;0.43;0.43;;;15.00;99.90;;;;;;4971947;28;20233;-72
2021/06/21 04:56:47;;;;;;;4.03;1.40;;;15.00;99.90;;;;;;4969524;28;20749;-72
2021/06/21 04:59:14;;;;;;;1.43;1.37;;;15.00;99.90;;;;;;4970006;28;20297;-68
2021/06/21 05:01:41;;;;;;;0.33;0.33;;;15.00;99.90;;;;;;4970990;28;20269;-70
2021/06/21 05:04:08;;;;;;;0.23;0.23;;;15.00;99.90;;;;;;4971846;28;20205;-72
2021/06/21 05:06:35;;;;;;;0.00;0.00;;;15.00;99.90;;;;;;4972501;28;20233;-71
2021/06/21 05:09:03;;;;;;;0.00;0.00;;;15.00;99.90;;;;;;4971107;28;20270;-72
2021/06/21 05:11:31;;;;;;;0.40;0.40;;;15.00;99.90;;;;;;4969324;28;20216;-72
2021/06/21 05:13:59;;;;;;;0.67;0.60;;;15.10;99.90;;;;;;4971634;28;20663;-71
2021/06/21 05:16:26;;;;;;;0.00;0.00;;;15.10;99.90;;;;;;4969881;28;20197;-71
2021/06/21 05:18:54;;;;;;;0.00;0.00;;;15.10;99.90;;;;;;4969842;28;20285;-71
2021/06/21 05:21:21;;;;;;;0.00;0.00;;;15.00;99.90;;;;;;4970931;28;20209;-71
2021/06/21 05:23:48;;;;;;;0.10;0.10;;;15.00;99.90;;;;;;4969444;28;22576;-73
2021/06/21 05:26:15;;;;;;;0.00;0.00;;;15.00;99.90;;;;;;4970876;28;20198;-71
2021/06/21 05:28:43;;;;;;;0.00;0.00;;;15.00;99.90;;;;;;4974163;28;20272;-71
2021/06/21 05:31:10;;;;;;;0.00;0.00;;;15.00;99.90;;;;;;4967965;28;20201;-71
2021/06/21 05:33:37;;;;;;;0.47;0.47;;;15.00;99.90;;;;;;4970767;28;20236;-71
2021/06/21 05:36:05;;;;;;;0.07;0.07;;;15.00;99.90;;;;;;4971797;28;20209;-71
2021/06/21 05:38:32;;;;;;;0.00;0.00;;;15.00;99.90;;;;;;4970140;28;20205;-71
2021/06/21 05:40:59;;;;;;;0.70;0.70;;;15.00;99.90;;;;;;4969714;28;20198;-72
2021/06/21 05:43:26;;;;;;;0.00;0.00;;;15.00;99.90;;;;;;4969363;28;20214;-73
2021/06/21 05:45:54;;;;;;;0.00;0.00;;;15.00;99.90;;;;;;4968811;28;20194;-70
2021/06/21 05:48:21;;;;;;;0.10;0.10;;;14.90;99.90;;;;;;4971622;28;20705;-72
2021/06/21 05:50:49;;;;;;;0.37;0.37;;;15.00;99.90;;;;;;4970291;28;20226;-70
2021/06/21 05:53:16;;;;;;;0.67;0.47;;;14.90;99.90;;;;;;4967183;28;20205;-72
2021/06/21 05:55:43;;;;;;;0.00;0.00;;;14.90;99.90;;;;;;4970205;28;20226;-71
2021/06/21 05:58:10;;;;;;;0.20;0.20;;;14.90;99.90;;;;;;4971266;28;21179;-70
2021/06/21 06:00:37;;;;;;;0.00;0.00;;;14.90;99.90;;;;;;4971310;28;20877;-71
2021/06/21 06:03:06;;;;;;;0.00;0.00;;;14.90;99.90;;;;;;4970182;28;20320;-71
2021/06/21 06:05:33;;;;;;;0.63;0.20;;;14.90;99.90;;;;;;4971766;28;20202;-71
2021/06/21 06:08:00;;;;;;;0.00;0.00;;;14.90;99.90;;;;;;4970401;28;20680;-71
2021/06/21 06:10:27;;;;;;;0.70;0.70;;;14.90;99.90;;;;;;4970017;28;20225;-70
2021/06/21 06:12:54;;;;;;;0.10;0.10;;;14.90;99.90;;;;;;4968096;28;20248;-71
2021/06/21 06:15:23;;;;;;;0.00;0.00;;;14.90;99.90;;;;;;4969022;28;20273;-70
2021/06/21 06:17:50;;;;;;;0.00;0.00;;;14.80;99.90;;;;;;4972294;28;20202;-73
2021/06/21 06:20:19;;;;;;;0.00;0.00;;;14.90;99.90;;;;;;4971773;28;20210;-72
2021/06/21 06:22:46;;;;;;;0.00;0.00;;;14.80;99.90;;;;;;4972152;28;20268;-70
2021/06/21 06:25:15;;;;;;;0.23;0.10;;;14.80;99.90;;;;;;4972618;28;20210;-72
2021/06/21 06:27:42;;;;;;;0.00;0.00;;;14.80;99.90;;;;;;4970281;28;20216;-68
2021/06/21 06:30:12;;;;;;;0.37;0.23;;;14.80;99.90;;;;;;4972565;28;20311;-71
2021/06/21 06:32:40;;;;;;;0.00;0.00;;;14.80;99.90;;;;;;4970724;28;20208;-72
2021/06/21 06:35:09;;;;;;;0.00;0.00;;;14.80;99.90;;;;;;4970357;28;20879;-70
2021/06/21 06:37:37;;;;;;;0.40;0.20;;;14.80;99.90;;;;;;4972252;28;20206;-69
2021/06/21 06:40:06;;;;;;;0.17;0.17;;;14.80;99.90;;;;;;4973344;28;20679;-69
2021/06/21 06:42:33;;;;;;;0.00;0.00;;;14.70;99.90;;;;;;4973195;28;20228;-69
2021/06/21 06:45:00;;;;;;;0.00;0.00;;;14.70;99.90;;;;;;4974202;28;20218;-69
2021/06/21 06:47:27;;;;;;;0.03;0.03;;;14.70;99.90;;;;;;4971594;28;20209;-70
2021/06/21 06:49:54;;;;;;;0.37;0.37;;;14.70;99.90;;;;;;4973362;28;20252;-70
2021/06/21 06:52:23;;;;;;;0.00;0.00;;;14.70;99.90;;;;;;4975016;28;20206;-71
2021/06/21 06:57:33;;;;;;;0.57;0.57;;;14.60;99.90;;;;;;4973122;28;20209;-69
2021/06/21 07:00:00;;;;;;;0.00;0.00;;;14.50;99.90;;;;;;4971317;28;20829;-69
2021/06/21 07:02:27;;;;;;;0.00;0.00;;;14.50;99.90;;;;;;4973758;28;20217;-70
2021/06/21 07:04:54;;;;;;;0.87;0.87;;;14.40;99.90;;;;;;4976285;28;20304;-71
2021/06/21 07:07:21;;;;;;;1.47;1.20;;;14.40;99.90;;;;;;4973718;28;20206;-77
2021/06/21 07:09:48;;;;;;;0.50;0.50;;;14.50;99.90;;;;;;4971765;28;20237;-73
2021/06/21 07:12:17;;;;;;;1.20;0.23;;;14.40;99.90;;;;;;4975737;28;20206;-70
2021/06/21 07:14:44;;;;;;;0.50;0.47;;;14.40;99.90;;;;;;4973231;28;20205;-76
2021/06/21 07:17:11;;;;;;;0.00;0.00;;;14.40;99.90;;;;;;4973903;28;20861;-75
2021/06/21 07:19:38;;;;;;;0.27;0.10;;;14.50;99.90;;;;;;4970501;28;20701;-71
2021/06/21 07:22:06;;;;;;;0.10;0.10;;;14.60;99.90;;;;;;4971962;28;20214;-74
2021/06/21 07:24:33;;;;;;;0.00;0.00;;;14.60;99.90;;;;;;4973703;28;20611;-74
2021/06/21 07:27:01;;;;;;;0.00;0.00;;;14.60;99.90;;;;;;4972726;28;20218;-70
2021/06/21 07:29:30;;;;;;;0.30;0.30;;;14.70;99.90;;;;;;4971073;28;20237;-76
2021/06/21 07:31:57;;;;;;;0.17;0.07;;;14.70;99.90;;;;;;4970307;28;20210;-75
2021/06/21 07:34:24;;;;;;;0.50;0.50;;;14.70;99.90;;;;;;4973190;28;20343;-71
2021/06/21 07:36:51;;;;;;;0.50;0.40;;;14.70;99.90;;;;;;4973901;28;20213;-70
2021/06/21 07:39:18;;;;;;;1.00;0.93;;;14.60;99.90;;;;;;4972939;28;20303;-68
2021/06/21 07:41:45;;;;;;;0.20;0.20;;;14.60;99.90;;;;;;4969553;28;20206;-76
2021/06/21 07:44:13;;;;;;;0.00;0.00;;;14.60;99.90;;;;;;4970873;28;20221;-78
2021/06/21 07:46:42;;;;;;;0.10;0.10;;;14.60;99.90;;;;;;4972236;28;20198;-74
2021/06/21 07:49:09;;;;;;;0.00;0.00;;;14.60;99.90;;;;;;4974811;28;20214;-74
2021/06/21 07:51:36;;;;;;;0.20;0.20;;;14.60;99.90;;;;;;4970010;28;20720;-73
2021/06/21 07:54:03;;;;;;;0.00;0.00;;;14.60;99.90;;;;;;4970541;28;20242;-77
2021/06/21 07:56:30;;;;;;;0.40;0.40;;;14.60;99.90;;;;;;4974904;28;20268;-73
2021/06/21 07:58:57;;;;;;;0.00;0.00;;;14.60;99.90;;;;;;4971147;28;20210;-71
2021/06/21 08:01:25;;;;;;;0.23;0.23;;;14.60;99.90;;;;;;4969700;28;20213;-69
2021/06/21 08:03:56;;;;;;;1.70;0.77;;;14.70;99.90;;;;;;4970947;28;20672;-74
2021/06/21 08:06:23;;;;;;;0.77;0.77;;;14.70;99.90;;;;;;4971250;28;20213;-74
2021/06/21 08:08:50;;;;;;;0.00;0.00;;;14.70;99.90;;;;;;4969877;28;20225;-69
2021/06/21 08:11:18;;;;;;;0.00;0.00;;;14.80;99.90;;;;;;4975497;28;20237;-72
2021/06/21 08:13:45;;;;;;;0.23;0.23;;;14.80;99.90;;;;;;4970782;28;20202;-75
2021/06/21 08:16:12;;;;;;;0.00;0.00;;;14.80;99.90;;;;;;4972199;28;20912;-70
2021/06/21 08:18:39;;;;;;;0.00;0.00;;;14.80;99.90;;;;;;4971451;28;21214;-74
2021/06/21 08:21:07;;;;;;;0.00;0.00;;;14.80;99.90;;;;;;4972722;28;20217;-72
2021/06/21 08:23:35;;;;;;;0.00;0.00;;;14.80;99.90;;;;;;4972389;28;20217;-71
2021/06/21 08:26:02;;;;;;;0.10;0.10;;;14.80;99.90;;;;;;4970193;28;20209;-74
2021/06/21 08:28:29;;;;;;;0.87;0.73;;;14.80;99.90;;;;;;4971468;28;20207;-75
2021/06/21 08:30:56;;;;;;;0.00;0.00;;;14.80;99.90;;;;;;4971068;28;20368;-70
2021/06/21 08:33:23;;;;;;;0.00;0.00;;;14.80;99.90;;;;;;4971503;28;20670;-77
2021/06/21 08:35:50;;;;;;;0.17;0.17;;;14.70;99.90;;;;;;4971149;28;20217;-72
2021/06/21 08:38:19;;;;;;;0.00;0.00;;;14.70;99.90;;;;;;4971084;28;20212;-69
2021/06/21 08:40:46;;;;;;;0.53;0.53;;;14.60;99.90;;;;;;4969888;28;20667;-70
2021/06/21 08:43:14;;;;;;;0.00;0.00;;;14.60;99.90;;;;;;4971615;28;21963;-70
2021/06/21 08:45:41;;;;;;;0.00;0.00;;;14.60;99.90;;;;;;4968836;28;20677;-74
2021/06/21 08:48:10;;;;;;;0.00;0.00;;;14.70;99.90;;;;;;4972562;28;20217;-68
2021/06/21 08:50:38;;;;;;;1.03;0.43;;;14.70;99.90;;;;;;4970126;28;20329;-74
2021/06/21 08:53:05;;;;;;;0.00;0.00;;;14.80;99.90;;;;;;4970411;28;20209;-72
2021/06/21 08:55:34;;;;;;;0.20;0.10;;;14.80;99.90;;;;;;4970732;28;20241;-68
2021/06/21 08:58:03;;;;;;;0.20;0.20;;;14.80;99.90;;;;;;4969212;28;20220;-77
2021/06/21 09:00:30;;;;;;;0.00;0.00;;;14.90;99.90;;;;;;4972005;28;20206;-79
2021/06/21 09:03:00;;;;;;;0.03;0.03;;;14.80;99.90;;;;;;4969982;28;20979;-73
2021/06/21 09:05:28;;;;;;;0.30;0.30;;;14.80;99.90;;;;;;4970646;28;20210;-70
2021/06/21 09:08:02;;;;;;;0.10;0.10;;;14.80;99.90;;;;;;4970875;28;20663;-75
2021/06/21 09:10:31;;;;;;;0.30;0.30;;;14.90;99.90;;;;;;4971667;28;20285;-72
2021/06/21 09:13:08;;;;;;;0.00;0.00;;;14.90;99.90;;;;;;4968637;28;20272;-79
2021/06/21 09:15:37;;;;;;;0.00;0.00;;;15.00;99.90;;;;;;4971992;28;20557;-79
2021/06/21 09:18:35;;;;;;;0.33;0.33;;;15.10;99.90;;;;;;4970505;28;20217;-79
2021/06/21 09:21:23;;;;;;;0.20;0.20;;;15.10;99.90;;;;;;4968215;28;21130;-77
2021/06/21 09:23:53;;;;;;;0.10;0.10;;;15.20;99.90;;;;;;4971039;28;20218;-69
2021/06/21 09:26:22;;;;;;;0.10;0.10;;;15.30;99.90;;;;;;4969635;28;20205;-76
2021/06/21 09:28:51;;;;;;;0.10;0.10;;;15.40;99.90;;;;;;4971635;28;20206;-71
2021/06/21 09:31:19;;;;;;;0.37;0.37;;;15.40;99.90;;;;;;4973194;28;20241;-73
2021/06/21 09:33:46;;;;;;;0.17;0.17;;;15.40;99.90;;;;;;4971550;28;20206;-76
2021/06/21 09:36:28;;;;;;;0.10;0.10;;;15.40;99.90;;;;;;4976863;28;20223;-71
2021/06/21 09:39:21;;;;;;;0.20;0.20;;;15.50;99.90;;;;;;4970938;28;20209;-73
2021/06/21 09:42:10;;;;;;;0.27;0.27;;;15.50;99.90;;;;;;4974025;28;20225;-71
2021/06/21 09:44:40;;;;;;;1.37;1.20;;;15.60;99.90;;;;;;4969771;28;20663;-74
2021/06/21 09:47:20;;;;;;;0.00;0.00;;;15.50;99.90;;;;;;4969303;28;20205;-72
2021/06/21 09:50:10;;;;;;;0.00;0.00;;;15.50;99.90;;;;;;4973276;28;20194;-67
2021/06/21 09:52:59;;;;;;;0.00;0.00;;;15.60;99.90;;;;;;4965725;28;20209;-69
2021/06/21 09:55:29;;;;;;;0.67;0.67;;;15.70;99.90;;;;;;4967221;28;20253;-68
2021/06/21 09:58:19;;;;;;;0.10;0.10;;;15.60;99.90;;;;;;4975706;28;20260;-70
2021/06/21 10:00:49;;;;;;;0.10;0.10;;;15.40;99.90;;;;;;4968118;28;20210;-75
2021/06/21 10:03:19;;;;;;;0.00;0.00;;;15.30;99.90;;;;;;4972424;28;20208;-70
2021/06/21 10:06:04;;;;;;;0.90;0.90;;;15.30;99.90;;;;;;4973363;28;20206;-67
2021/06/21 10:08:41;;;;;;;0.00;0.00;;;15.20;99.90;;;;;;4975471;28;20289;-70
2021/06/21 10:11:30;;;;;;;0.00;0.00;;;15.20;99.90;;;;;;4978658;28;20236;-70
2021/06/21 10:13:57;;;;;;;0.00;0.00;;;15.30;99.90;;;;;;4979801;28;20996;-73
2021/06/21 10:16:26;;;;;;;0.17;0.17;;;15.20;99.90;;;;;;4975508;28;20205;-73
2021/06/21 10:18:55;;;;;;;0.00;0.00;;;15.30;99.90;;;;;;4976799;28;20205;-71
2021/06/21 10:21:22;;;;;;;0.00;0.00;;;15.40;99.90;;;;;;4973231;28;20209;-72
2021/06/21 10:23:49;;;;;;;0.10;0.10;;;15.30;99.90;;;;;;4974762;28;20202;-72
2021/06/21 10:26:17;;;;;;;0.00;0.00;;;15.40;99.90;;;;;;4974237;28;20727;-70
2021/06/21 10:28:45;;;;;;;0.20;0.20;;;15.40;99.90;;;;;;4971469;28;20203;-68
2021/06/21 10:31:13;;;;;;;0.00;0.00;;;15.40;99.90;;;;;;4974553;28;20229;-70
2021/06/21 10:33:41;;;;;;;0.00;0.00;;;15.40;99.90;;;;;;4974718;28;20214;-79
2021/06/21 10:36:10;;;;;;;0.00;0.00;;;15.50;99.90;;;;;;4977108;28;20210;-71
2021/06/21 10:38:37;;;;;;;0.10;0.10;;;15.40;99.90;;;;;;4969585;28;20215;-79
2021/06/21 10:41:07;;;;;;;0.00;0.00;;;15.50;99.90;;;;;;4974023;28;20256;-73
2021/06/21 10:43:55;;;;;;;0.20;0.20;;;15.40;99.90;;;;;;4970641;28;20210;-78
2021/06/21 10:46:28;;;;;;;0.00;0.00;;;15.50;99.90;;;;;;4965465;28;20276;-74
2021/06/21 10:49:28;;;;;;;0.43;0.43;;;15.50;99.90;;;;;;4973142;28;20202;-72
2021/06/21 10:51:56;;;;;;;0.53;0.53;;;15.40;99.90;;;;;;4969863;28;20252;-72
2021/06/21 10:54:26;;;;;;;0.13;0.13;;;15.30;99.90;;;;;;4972870;28;20241;-70
2021/06/21 10:56:54;;;;;;;1.13;0.60;;;15.30;99.90;;;;;;4976466;28;20214;-73
2021/06/21 10:59:23;;;;;;;0.90;0.87;;;15.30;99.90;;;;;;4974068;28;20213;-77
2021/06/21 11:01:52;;;;;;;0.30;0.20;;;15.20;99.90;;;;;;4970929;28;20263;-75
2021/06/21 11:04:44;;;;;;;0.20;0.20;;;15.10;99.90;;;;;;4969713;28;20210;-69
2021/06/21 11:07:14;;;;;;;0.00;0.00;;;15.10;99.90;;;;;;4974140;28;20611;-73
2021/06/21 11:09:43;;;;;;;0.00;0.00;;;15.20;99.90;;;;;;4974399;28;20663;-74
2021/06/21 11:12:43;;;;;;;0.00;0.00;;;15.20;99.90;;;;;;4970629;28;20225;-73
2021/06/21 11:15:16;;;;;;;0.33;0.33;;;15.30;99.90;;;;;;4969803;28;20202;-74
2021/06/21 11:17:56;;;;;;;0.00;0.00;;;15.30;99.90;;;;;;4971454;28;20551;-75
2021/06/21 11:20:39;;;;;;;0.00;0.00;;;15.40;99.90;;;;;;4970481;28;20205;-77
2021/06/21 11:23:09;;;;;;;0.20;0.10;;;15.40;99.90;;;;;;4968485;28;20260;-76
2021/06/21 11:25:40;;;;;;;0.83;0.83;;;15.30;99.90;;;;;;4973946;28;20210;-77
2021/06/21 11:28:28;;;;;;;0.30;0.30;;;15.30;99.90;;;;;;4977678;28;20313;-76
2021/06/21 11:31:20;;;;;;;1.00;1.00;;;15.20;99.90;;;;;;4978690;28;20221;-77
2021/06/21 11:33:52;;;;;;;0.10;0.10;;;15.20;99.90;;;;;;4969690;28;20626;-75
2021/06/21 11:36:37;;;;;;;0.00;0.00;;;15.20;99.90;;;;;;4971543;28;20299;-76
2021/06/21 11:39:24;;;;;;;0.30;0.27;;;15.30;99.90;;;;;;4973244;28;20221;-78
2021/06/21 11:41:55;;;;;;;0.00;0.00;;;15.30;99.90;;;;;;4968270;28;20768;-76
2021/06/21 11:44:48;;;;;;;0.00;0.00;;;15.30;99.90;;;;;;4968183;28;20205;-77
2021/06/21 11:47:23;;;;;;;0.47;0.47;;;15.30;99.90;;;;;;4971431;28;20595;-78
2021/06/21 11:49:51;;;;;;;0.70;0.70;;;15.30;99.90;;;;;;4971206;28;20205;-78
2021/06/21 11:52:20;;;;;;;0.20;0.20;;;15.40;99.90;;;;;;4969478;28;20269;-79
2021/06/21 11:54:50;;;;;;;0.00;0.00;;;15.30;99.90;;;;;;4973723;28;20230;-75
2021/06/21 11:57:18;;;;;;;0.53;0.20;;;15.40;99.90;;;;;;4975512;28;20264;-79
2021/06/21 11:59:47;;;;;;;0.00;0.00;;;15.40;99.90;;;;;;4972688;28;20194;-73
2021/06/21 12:02:15;;;;;;;0.00;0.00;;;15.40;99.90;;;;;;4976493;28;20209;-73
2021/06/21 12:04:44;;;;;;;0.00;0.00;;;15.40;99.90;;;;;;4980813;28;20272;-71
2021/06/21 12:07:28;;;;;;;0.53;0.53;;;15.30;99.90;;;;;;4980515;28;20206;-75
2021/06/21 12:09:58;;;;;;;0.30;0.30;;;15.30;99.90;;;;;;4986089;28;20232;-66
2021/06/21 12:12:27;;;;;;;0.50;0.50;;;15.30;99.90;;;;;;4986717;28;20234;-71
2021/06/21 12:14:54;;;;;;;0.00;0.00;;;15.30;99.90;;;;;;4989233;28;20280;-74
2021/06/21 12:17:22;;;;;;;0.00;0.00;;;15.40;99.90;;;;;;4988031;28;20213;-76
2021/06/21 12:20:05;;;;;;;0.00;0.00;;;15.60;99.90;;;;;;4977998;28;20214;-73
2021/06/21 12:22:32;;;;;;;0.00;0.00;;;15.60;99.90;;;;;;4985708;28;20764;-77
2021/06/21 12:25:01;;;;;;;0.00;0.00;;;15.60;99.90;;;;;;4987561;28;20667;-76
2021/06/21 12:27:30;;;;;;;0.27;0.27;;;15.60;99.90;;;;;;4988353;28;20256;-76
2021/06/21 12:29:57;;;;;;;0.00;0.00;;;15.50;99.90;;;;;;4989792;28;20252;-79
2021/06/21 12:32:30;;;;;;;0.53;0.43;;;15.50;99.90;;;;;;4988017;28;20229;-78
2021/06/21 12:34:57;;;;;;;0.00;0.00;;;15.30;99.90;;;;;;4987260;28;20204;-77
2021/06/21 12:37:28;;;;;;;0.00;0.00;;;15.40;99.90;;;;;;4988224;28;20213;-77
2021/06/21 12:39:57;;;;;;;0.00;0.00;;;15.40;99.90;;;;;;4988549;28;20211;-78
2021/06/21 12:42:27;;;;;;;1.07;0.20;;;15.40;99.90;;;;;;4987524;28;20201;-76
2021/06/21 12:44:54;;;;;;;0.53;0.27;;;15.30;99.90;;;;;;4988689;28;20679;-74
2021/06/21 12:47:24;;;;;;;0.10;0.10;;;15.30;99.90;;;;;;4988435;28;20205;-76
2021/06/21 12:49:53;;;;;;;0.00;0.00;;;15.20;99.90;;;;;;4982569;28;20205;-75
2021/06/21 12:52:21;;;;;;;0.00;0.00;;;15.20;99.90;;;;;;4987205;28;20303;-75
2021/06/21 12:54:54;;;;;;;0.00;0.00;;;15.20;99.90;;;;;;4984964;28;20236;-78
2021/06/21 12:57:21;;;;;;;0.00;0.00;;;15.30;99.90;;;;;;4979327;28;20252;-77
2021/06/21 12:59:52;;;;;;;0.00;0.00;;;15.30;99.90;;;;;;4983071;28;20201;-75
2021/06/21 13:02:22;;;;;;;0.20;0.20;;;15.40;99.90;;;;;;4985188;28;20200;-72
2021/06/21 13:04:59;;;;;;;0.00;0.00;;;15.40;99.90;;;;;;4977948;28;20785;-74